createdAt,value
2022-09-09T00:00:25.810Z,5.10
2022-09-09T00:03:05.088Z,5.43
2022-09-09T00:05:46.805Z,5.50
2022-09-09T00:08:25.883Z,5.27
2022-09-09T00:11:02.787Z,3.97
2022-09-09T00:13:39.269Z,5.80
2022-09-09T00:16:19.267Z,3.60
2022-09-09T00:19:00.093Z,3.97
2022-09-09T00:21:37.361Z,7.20
2022-09-09T00:24:16.986Z,4.70
2022-09-09T00:26:52.850Z,5.33
2022-09-09T00:29:35.021Z,6.53
2022-09-09T00:32:15.254Z,4.93
2022-09-09T00:34:56.180Z,6.53
2022-09-09T00:37:29.722Z,5.17
2022-09-09T00:40:13.612Z,6.10
2022-09-09T00:42:48.049Z,5.70
2022-09-09T00:45:36.852Z,7.13
2022-09-09T00:48:13.749Z,6.97
2022-09-09T00:50:54.360Z,6.43
2022-09-09T00:53:39.386Z,6.47
2022-09-09T00:56:18.456Z,6.50
2022-09-09T00:59:04.701Z,6.47
2022-09-09T01:01:37.589Z,8.57
2022-09-09T01:04:14.542Z,7.30
2022-09-09T01:06:46.433Z,6.90
2022-09-09T01:09:25.614Z,6.53
2022-09-09T01:12:06.813Z,8.37
2022-09-09T01:14:47.012Z,8.40
2022-09-09T01:17:23.335Z,8.97
2022-09-09T01:20:11.102Z,8.60
2022-09-09T01:22:50.316Z,7.00
2022-09-09T01:25:33.051Z,5.20
2022-09-09T01:28:15.003Z,7.00
2022-09-09T01:30:46.363Z,7.43
2022-09-09T01:33:20.875Z,6.37
2022-09-09T01:35:57.371Z,7.60
2022-09-09T01:38:29.502Z,8.80
2022-09-09T01:41:00.442Z,6.93
2022-09-09T01:43:34.633Z,6.30
2022-09-09T01:46:06.835Z,7.63
2022-09-09T01:48:38.179Z,7.23
2022-09-09T01:51:09.713Z,7.50
2022-09-09T01:53:41.667Z,6.33
2022-09-09T01:56:27.347Z,5.27
2022-09-09T01:59:19.029Z,8.93
2022-09-09T02:02:06.223Z,8.50
2022-09-09T02:04:57.363Z,5.73
2022-09-09T02:10:36.280Z,8.13
2022-09-09T02:13:13.489Z,11.90
2022-09-09T02:16:00.096Z,6.13
2022-09-09T02:18:35.607Z,7.43
2022-09-09T02:21:08.123Z,6.20
2022-09-09T02:23:43.220Z,6.30
2022-09-09T02:26:32.906Z,6.37
2022-09-09T02:29:10.635Z,6.43
2022-09-09T02:31:48.651Z,8.63
2022-09-09T02:34:23.667Z,5.80
2022-09-09T02:37:12.765Z,6.27
2022-09-09T02:39:46.346Z,6.83
2022-09-09T02:42:22.102Z,7.10
2022-09-09T02:44:54.769Z,7.10
2022-09-09T02:47:55.986Z,5.40
2022-09-09T02:50:37.410Z,5.50
2022-09-09T02:53:18.669Z,4.10
2022-09-09T02:55:56.688Z,5.63
2022-09-09T02:58:28.250Z,9.70
2022-09-09T03:01:03.698Z,5.87
2022-09-09T03:03:54.577Z,9.93
2022-09-09T03:06:28.193Z,7.30
2022-09-09T03:15:10.713Z,4.70
2022-09-09T03:17:48.410Z,6.00
2022-09-09T03:20:22.993Z,5.53
2022-09-09T03:22:54.222Z,5.60
2022-09-09T03:25:26.744Z,7.30
2022-09-09T03:27:59.272Z,8.50
2022-09-09T03:30:32.576Z,8.90
2022-09-09T03:33:04.237Z,4.77
2022-09-09T03:35:38.045Z,6.73
2022-09-09T03:38:08.853Z,9.23
2022-09-09T03:40:42.236Z,6.23
2022-09-09T03:43:13.967Z,6.67
2022-09-09T03:45:46.238Z,5.30
2022-09-09T03:48:18.532Z,4.80
2022-09-09T03:50:55.965Z,7.03
2022-09-09T03:53:30.079Z,6.43
2022-09-09T03:56:04.224Z,5.37
2022-09-09T03:58:52.748Z,4.43
2022-09-09T04:01:24.558Z,5.33
2022-09-09T04:03:58.009Z,5.93
2022-09-09T04:06:32.582Z,6.80
2022-09-09T04:11:53.729Z,7.73
2022-09-09T04:14:25.792Z,6.33
2022-09-09T04:19:53.129Z,4.83
2022-09-09T04:22:26.127Z,3.33
2022-09-09T04:24:57.285Z,4.03
2022-09-09T04:27:28.484Z,6.03
2022-09-09T04:29:59.766Z,7.40
2022-09-09T04:32:30.527Z,4.27
2022-09-09T04:35:01.948Z,3.90
2022-09-09T04:37:37.342Z,5.37
2022-09-09T04:40:11.687Z,3.07
2022-09-09T04:42:46.072Z,2.57
2022-09-09T04:45:18.202Z,6.23
2022-09-09T04:47:49.100Z,6.03
2022-09-09T04:50:20.698Z,5.20
2022-09-09T04:52:54.222Z,6.40
2022-09-09T04:55:25.472Z,4.87
2022-09-09T04:57:56.316Z,5.80
2022-09-09T05:00:27.364Z,4.93
2022-09-09T05:03:00.476Z,4.73
2022-09-09T05:05:32.536Z,6.37
2022-09-09T05:08:09.363Z,7.57
2022-09-09T05:10:48.495Z,4.33
2022-09-09T05:13:30.434Z,4.60
2022-09-09T05:16:01.791Z,4.40
2022-09-09T05:18:33.285Z,5.20
2022-09-09T05:23:59.822Z,8.97
2022-09-09T05:26:32.552Z,6.47
2022-09-09T05:29:12.601Z,6.03
2022-09-09T05:31:45.468Z,4.03
2022-09-09T05:34:17.392Z,5.90
2022-09-09T05:36:48.948Z,6.40
2022-09-09T05:42:17.872Z,4.17
2022-09-09T05:44:49.006Z,4.47
2022-09-09T05:47:20.500Z,3.67
2022-09-09T05:49:51.823Z,3.47
2022-09-09T05:52:23.134Z,3.63
2022-09-09T05:54:54.359Z,4.60
2022-09-09T05:57:28.607Z,6.13
2022-09-09T06:00:00.383Z,3.17
2022-09-09T06:02:32.519Z,5.53
2022-09-09T06:05:03.340Z,6.00
2022-09-09T06:10:28.448Z,7.43
2022-09-09T06:15:56.901Z,6.43
2022-09-09T06:18:28.537Z,3.17
2022-09-09T06:21:06.174Z,5.40
2022-09-09T06:23:38.350Z,3.97
2022-09-09T06:26:10.833Z,3.80
2022-09-09T06:28:45.931Z,5.10
2022-09-09T06:31:19.437Z,7.20
2022-09-09T06:33:52.080Z,3.33
2022-09-09T06:36:24.975Z,2.60
2022-09-09T06:38:56.400Z,5.97
2022-09-09T06:41:29.533Z,4.27
2022-09-09T06:44:03.526Z,5.33
2022-09-09T06:46:35.871Z,4.47
2022-09-09T06:49:07.433Z,5.57
2022-09-09T06:51:44.265Z,5.17
2022-09-09T06:54:16.518Z,4.13
2022-09-09T06:56:47.863Z,7.70
2022-09-09T06:59:22.365Z,5.70
2022-09-09T07:01:56.083Z,5.10
2022-09-09T07:04:28.227Z,3.77
2022-09-09T07:06:59.977Z,4.90
2022-09-09T07:09:34.003Z,2.90
2022-09-09T07:12:07.603Z,2.70
2022-09-09T07:14:41.121Z,5.57
2022-09-09T07:17:12.561Z,7.13
2022-09-09T07:19:44.177Z,6.60
2022-09-09T07:22:15.696Z,3.10
2022-09-09T07:24:47.097Z,4.77
2022-09-09T07:27:18.455Z,4.47
2022-09-09T07:29:53.075Z,5.90
2022-09-09T07:32:25.484Z,2.57
2022-09-09T07:34:57.111Z,1.93
2022-09-09T07:37:28.813Z,3.37
2022-09-09T07:40:01.173Z,7.03
2022-09-09T07:42:32.611Z,2.47
2022-09-09T07:45:06.386Z,1.97
2022-09-09T07:47:38.261Z,1.90
2022-09-09T07:50:12.360Z,5.13
2022-09-09T07:52:43.787Z,3.00
2022-09-09T07:55:15.580Z,7.20
2022-09-09T07:57:47.111Z,4.27
2022-09-09T08:00:29.134Z,4.83
2022-09-09T08:03:00.593Z,2.83
2022-09-09T08:05:32.374Z,4.00
2022-09-09T08:08:06.273Z,2.57
2022-09-09T08:10:37.931Z,5.70
2022-09-09T08:13:17.943Z,3.27
2022-09-09T08:15:53.139Z,5.37
2022-09-09T08:18:25.321Z,3.87
2022-09-09T08:20:57.203Z,3.60
2022-09-09T08:23:28.538Z,6.50
2022-09-09T08:26:06.761Z,2.87
2022-09-09T08:28:38.028Z,3.87
2022-09-09T08:31:17.106Z,3.60
2022-09-09T08:34:01.972Z,3.93
2022-09-09T08:36:35.402Z,5.23
2022-09-09T08:39:07.724Z,4.63
2022-09-09T08:42:16.415Z,4.53
2022-09-09T08:45:16.046Z,3.60
2022-09-09T08:47:59.534Z,5.17
2022-09-09T08:50:33.303Z,4.47
2022-09-09T08:53:07.975Z,5.90
2022-09-09T08:55:46.201Z,2.67
2022-09-09T08:58:20.085Z,6.13
2022-09-09T09:01:07.410Z,2.90
2022-09-09T09:03:52.052Z,4.97
2022-09-09T09:06:38.241Z,4.93
2022-09-09T09:09:15.745Z,4.40
2022-09-09T09:11:53.938Z,4.47
2022-09-09T09:17:01.681Z,6.03
2022-09-09T09:19:36.665Z,5.93
2022-09-09T09:22:18.930Z,5.73
2022-09-09T09:24:57.670Z,5.03
2022-09-09T09:27:37.653Z,5.53
2022-09-09T09:30:26.808Z,6.57
2022-09-09T09:33:05.414Z,4.10
2022-09-09T09:35:40.022Z,5.27
2022-09-09T09:41:13.958Z,5.80
2022-09-09T09:43:46.221Z,7.33
2022-09-09T09:46:25.964Z,6.10
2022-09-09T09:49:08.084Z,5.93
2022-09-09T09:51:40.304Z,6.57
2022-09-09T09:54:23.123Z,2.93
2022-09-09T09:56:53.716Z,6.37
2022-09-09T09:59:39.081Z,3.80
2022-09-09T10:02:22.537Z,6.40
2022-09-09T10:05:04.269Z,4.33
2022-09-09T10:07:36.857Z,4.73
2022-09-09T10:10:16.559Z,5.77
2022-09-09T10:12:59.664Z,4.03
2022-09-09T10:15:42.250Z,7.33
2022-09-09T10:18:33.430Z,3.50
2022-09-09T10:21:13.237Z,6.73
2022-09-09T10:23:59.751Z,5.77
2022-09-09T10:26:47.608Z,5.53
2022-09-09T10:29:31.485Z,5.70
2022-09-09T10:32:24.617Z,6.97
2022-09-09T10:35:02.593Z,5.23
2022-09-09T10:37:46.920Z,5.27
2022-09-09T10:40:35.941Z,4.77
2022-09-09T10:43:22.053Z,6.03
2022-09-09T10:46:04.713Z,5.87
2022-09-09T10:49:00.661Z,2.77
2022-09-09T10:51:45.206Z,5.20
2022-09-09T10:54:35.208Z,3.37
2022-09-09T10:57:13.311Z,4.73
2022-09-09T10:59:51.864Z,4.27
2022-09-09T11:02:29.809Z,5.33
2022-09-09T11:05:05.890Z,2.60
2022-09-09T11:07:45.183Z,4.20
2022-09-09T11:10:27.403Z,5.03
2022-09-09T11:13:03.730Z,7.87
2022-09-09T11:15:46.181Z,5.73
2022-09-09T11:18:23.582Z,5.43
2022-09-09T11:21:01.072Z,4.23
2022-09-09T11:23:41.696Z,5.70
2022-09-09T11:26:19.173Z,6.87
2022-09-09T11:29:04.932Z,6.73
2022-09-09T11:31:49.529Z,4.20
2022-09-09T11:34:44.249Z,4.07
2022-09-09T11:37:47.943Z,5.37
2022-09-09T11:40:28.009Z,6.47
2022-09-09T11:43:14.747Z,6.60
2022-09-09T11:45:48.278Z,6.13
2022-09-09T11:48:33.760Z,9.73
2022-09-09T11:51:12.089Z,3.63
2022-09-09T11:53:57.250Z,7.13
2022-09-09T11:56:36.510Z,4.07
2022-09-09T11:59:08.785Z,3.67
2022-09-09T12:01:45.580Z,4.40
2022-09-09T12:04:42.475Z,7.73
2022-09-09T12:07:38.406Z,3.23
2022-09-09T12:10:26.527Z,9.03
2022-09-09T12:12:57.441Z,7.30
2022-09-09T12:15:33.368Z,4.90
2022-09-09T12:18:05.484Z,6.60
2022-09-09T12:20:40.287Z,5.77
2022-09-09T12:23:29.651Z,7.93
2022-09-09T12:26:12.101Z,6.57
2022-09-09T12:28:55.082Z,5.23
2022-09-09T12:31:34.270Z,6.73
2022-09-09T12:34:15.756Z,5.13
2022-09-09T12:36:54.776Z,6.13
2022-09-09T12:39:37.722Z,8.67
2022-09-09T12:42:09.947Z,6.87
2022-09-09T12:44:42.006Z,7.07
2022-09-09T12:47:18.136Z,7.47
2022-09-09T12:49:51.259Z,6.57
2022-09-09T12:52:32.583Z,9.23
2022-09-09T12:55:05.608Z,5.33
2022-09-09T12:57:41.054Z,7.80
2022-09-09T13:00:17.665Z,10.00
2022-09-09T13:02:56.666Z,6.57
2022-09-09T13:05:30.267Z,4.53
2022-09-09T13:08:09.589Z,6.63
2022-09-09T13:11:02.934Z,5.93
2022-09-09T13:13:40.022Z,8.07
2022-09-09T13:16:24.187Z,7.73
2022-09-09T13:18:58.121Z,5.93
2022-09-09T13:21:40.956Z,6.80
2022-09-09T13:24:33.447Z,6.97
2022-09-09T13:27:06.173Z,11.80
2022-09-09T13:29:38.141Z,7.00
2022-09-09T13:32:17.190Z,10.27
2022-09-09T13:34:56.842Z,6.60
2022-09-09T13:37:37.543Z,7.33
2022-09-09T13:40:24.211Z,7.00
2022-09-09T13:43:00.385Z,5.17
2022-09-09T13:45:32.050Z,9.53
2022-09-09T13:48:16.495Z,9.27
2022-09-09T13:50:57.692Z,7.27
2022-09-09T13:53:28.952Z,9.53
2022-09-09T13:56:03.529Z,10.07
2022-09-09T13:58:34.920Z,9.77
2022-09-09T14:01:06.329Z,6.53
2022-09-09T14:03:37.444Z,9.87
2022-09-09T14:06:09.270Z,11.53
2022-09-09T14:08:41.372Z,13.17
2022-09-09T14:11:43.979Z,7.50
2022-09-09T14:14:16.018Z,9.23
2022-09-09T14:16:47.413Z,8.43
2022-09-09T14:19:33.166Z,8.53
2022-09-09T14:22:18.725Z,8.20
2022-09-09T14:28:04.734Z,7.93
2022-09-09T14:34:02.962Z,7.77
2022-09-09T14:36:48.852Z,10.33
2022-09-09T14:41:58.005Z,11.23
2022-09-09T14:44:45.875Z,9.43
2022-09-09T14:47:20.632Z,10.63
2022-09-09T14:49:53.152Z,11.63
2022-09-09T14:52:30.485Z,10.47
2022-09-09T14:55:23.048Z,12.73
2022-09-09T14:57:58.494Z,9.23
2022-09-09T15:00:31.888Z,12.13
2022-09-09T15:03:03.726Z,12.90
2022-09-09T15:08:42.542Z,13.53
2022-09-09T15:14:14.396Z,6.70
2022-09-09T15:17:36.980Z,11.67
2022-09-09T15:20:11.734Z,6.13
2022-09-09T15:22:45.941Z,10.10
2022-09-09T15:25:16.792Z,7.87
2022-09-09T15:27:47.600Z,10.03
2022-09-09T15:30:19.095Z,12.53
2022-09-09T15:32:50.329Z,11.87
2022-09-09T15:35:24.510Z,8.03
2022-09-09T15:37:56.149Z,10.07
2022-09-09T15:40:27.531Z,7.03
2022-09-09T15:42:59.497Z,10.30
2022-09-09T15:45:35.958Z,11.93
2022-09-09T15:51:41.154Z,9.43
2022-09-09T15:54:16.335Z,13.80
2022-09-09T15:56:53.083Z,7.93
2022-09-09T15:59:25.945Z,8.47
2022-09-09T16:04:57.495Z,9.93
2022-09-09T16:07:49.034Z,8.50
2022-09-09T16:10:23.442Z,7.53
2022-09-09T16:12:54.946Z,6.40
2022-09-09T16:15:34.087Z,9.23
2022-09-09T16:18:05.359Z,10.73
2022-09-09T16:20:37.737Z,7.13
2022-09-09T16:23:11.020Z,6.47
2022-09-09T16:25:42.375Z,6.93
2022-09-09T16:28:14.161Z,8.87
2022-09-09T16:30:45.939Z,9.30
2022-09-09T16:33:17.778Z,7.03
2022-09-09T16:35:51.689Z,10.20
2022-09-09T16:38:30.518Z,8.30
2022-09-09T16:41:06.044Z,6.97
2022-09-09T16:43:40.192Z,8.53
2022-09-09T16:46:19.277Z,10.70
2022-09-09T16:48:53.618Z,11.10
2022-09-09T16:51:27.160Z,8.37
2022-09-09T16:54:03.386Z,10.73
2022-09-09T16:56:38.608Z,8.10
2022-09-09T16:59:40.770Z,10.30
2022-09-09T17:02:13.764Z,7.63
2022-09-09T17:04:48.161Z,12.07
2022-09-09T17:07:25.309Z,13.03
2022-09-09T17:10:03.029Z,9.17
2022-09-09T17:12:35.411Z,9.93
2022-09-09T17:15:23.385Z,11.23
2022-09-09T17:18:01.220Z,14.07
2022-09-09T17:20:45.756Z,7.37
2022-09-09T17:23:18.389Z,9.73
2022-09-09T17:26:02.516Z,6.63
2022-09-09T17:28:34.208Z,8.43
2022-09-09T17:31:08.181Z,9.27
2022-09-09T17:33:42.056Z,8.33
2022-09-09T17:36:15.664Z,13.57
2022-09-09T17:41:50.589Z,12.13
2022-09-09T17:44:22.696Z,11.13
2022-09-09T17:46:54.304Z,10.90
2022-09-09T17:55:37.803Z,8.60
2022-09-09T18:01:28.035Z,11.50
2022-09-09T18:04:02.345Z,11.83
2022-09-09T18:06:37.926Z,13.20
2022-09-09T18:09:11.033Z,10.43
2022-09-09T18:11:44.897Z,10.43
2022-09-09T18:14:21.253Z,14.70
2022-09-09T18:16:53.986Z,11.93
2022-09-09T18:19:26.826Z,12.10
2022-09-09T18:22:00.361Z,12.70
2022-09-09T18:24:35.960Z,10.77
2022-09-09T18:27:07.910Z,15.97
2022-09-09T18:29:40.934Z,13.13
2022-09-09T18:32:12.065Z,13.77
2022-09-09T18:34:45.957Z,14.43
2022-09-09T18:37:18.624Z,15.57
2022-09-09T18:39:50.211Z,16.77
2022-09-09T18:42:21.568Z,15.03
2022-09-09T18:44:56.719Z,15.57
2022-09-09T18:47:28.118Z,14.47
2022-09-09T18:49:59.381Z,13.87
2022-09-09T18:52:30.700Z,15.30
2022-09-09T18:55:02.645Z,15.77
2022-09-09T18:57:36.395Z,11.33
2022-09-09T19:00:11.460Z,13.30
2022-09-09T19:02:43.273Z,14.40
2022-09-09T19:05:14.489Z,14.83
2022-09-09T19:07:46.128Z,13.33
2022-09-09T19:10:17.671Z,13.33
2022-09-09T19:12:49.704Z,15.13
2022-09-09T19:15:41.260Z,11.37
2022-09-09T19:18:14.441Z,14.37
2022-09-09T19:20:47.142Z,14.93
2022-09-09T19:23:18.304Z,16.67
2022-09-09T19:25:50.325Z,14.70
2022-09-09T19:28:21.581Z,15.87
2022-09-09T19:30:57.450Z,19.90
2022-09-09T19:33:28.849Z,15.63
2022-09-09T19:36:03.611Z,15.43
2022-09-09T19:38:37.829Z,16.63
2022-09-09T19:41:11.072Z,18.20
2022-09-09T19:43:42.893Z,14.03
2022-09-09T19:46:19.544Z,13.67
2022-09-09T19:48:52.366Z,17.67
2022-09-09T19:51:25.181Z,17.90
2022-09-09T19:53:58.476Z,16.70
2022-09-09T19:56:31.256Z,18.80
2022-09-09T19:59:02.893Z,19.37
2022-09-09T20:01:40.377Z,20.50
2022-09-09T20:04:12.694Z,18.90
2022-09-09T20:06:45.432Z,19.13
2022-09-09T20:09:18.797Z,22.37
2022-09-09T20:11:51.983Z,21.63
2022-09-09T20:14:23.679Z,20.63
2022-09-09T20:16:58.624Z,22.20
2022-09-09T20:19:30.026Z,21.73
2022-09-09T20:22:01.655Z,19.33
2022-09-09T20:24:33.003Z,18.10
2022-09-09T20:27:04.445Z,18.47
2022-09-09T20:29:36.798Z,20.87
2022-09-09T20:32:10.430Z,17.70
2022-09-09T20:34:46.446Z,23.37
2022-09-09T20:37:38.431Z,23.27
2022-09-09T20:40:18.744Z,23.10
2022-09-09T20:45:39.015Z,25.23
2022-09-09T20:48:15.648Z,24.10
2022-09-09T20:50:46.957Z,21.30
2022-09-09T20:53:19.209Z,21.83
2022-09-09T20:55:52.550Z,25.37
2022-09-09T20:58:23.987Z,24.83
2022-09-09T21:01:04.428Z,30.53
2022-09-09T21:03:40.692Z,28.27
2022-09-09T21:09:00.830Z,25.73
2022-09-09T21:11:37.721Z,28.33
2022-09-09T21:14:09.959Z,29.87
2022-09-09T21:16:50.638Z,31.30
2022-09-09T21:19:25.682Z,23.77
2022-09-09T21:22:01.192Z,28.33
2022-09-09T21:24:33.430Z,24.77
2022-09-09T21:27:04.761Z,26.97
2022-09-09T21:29:37.385Z,26.87
2022-09-09T21:32:12.163Z,26.73
2022-09-09T21:34:47.093Z,26.50
2022-09-09T21:37:19.679Z,29.10
2022-09-09T21:39:59.947Z,28.37
2022-09-09T21:42:34.592Z,24.77
2022-09-09T21:45:08.950Z,26.33
2022-09-09T21:47:43.672Z,27.60
2022-09-09T21:50:18.651Z,26.83
2022-09-09T21:53:00.900Z,27.63
2022-09-09T21:55:38.032Z,23.80
2022-09-09T21:58:13.974Z,25.20
2022-09-09T22:00:50.367Z,24.87
2022-09-09T22:03:26.583Z,24.67
2022-09-09T22:06:03.673Z,28.67
2022-09-09T22:11:28.859Z,26.83
2022-09-09T22:14:07.189Z,25.63
2022-09-09T22:19:49.448Z,23.97
2022-09-09T22:22:23.480Z,22.63
2022-09-09T22:24:55.534Z,20.87
2022-09-09T22:27:27.126Z,21.23
2022-09-09T22:29:58.678Z,15.83
2022-09-09T22:32:30.396Z,17.20
2022-09-09T22:35:04.931Z,19.40
2022-09-09T22:37:47.639Z,18.37
2022-09-09T22:43:27.725Z,16.60
2022-09-09T22:46:03.126Z,15.17
2022-09-09T22:48:50.205Z,14.00
2022-09-09T22:51:22.607Z,14.03
2022-09-09T22:54:16.225Z,12.93
2022-09-09T22:59:40.419Z,13.23
2022-09-09T23:13:20.348Z,14.63
2022-09-09T23:16:06.696Z,16.50
2022-09-09T23:18:38.758Z,15.40
2022-09-09T23:21:16.538Z,16.37
2022-09-09T23:23:49.737Z,15.13
2022-09-09T23:26:22.387Z,16.20
2022-09-09T23:29:01.866Z,15.03
2022-09-09T23:31:41.308Z,17.07
2022-09-09T23:36:59.637Z,17.53
2022-09-09T23:39:47.524Z,20.70
2022-09-09T23:42:35.467Z,19.40
2022-09-09T23:45:16.104Z,21.00
2022-09-09T23:47:48.007Z,19.03
2022-09-09T23:50:34.208Z,17.27
2022-09-09T23:53:08.943Z,17.67
2022-09-09T23:55:42.325Z,19.57
2022-09-09T23:58:23.990Z,21.23
